Snow/Ice From: 16-12-2017 16:00 Until: 17-12-2017 16:00 warning for: Snow/Ice Level: Yellow info button

Although rather usual in this region, locally or potentially dangerous phenomena are expected. (such as local winds, summer thunderstorms, rising streams or high waves) Be aware and pay attention to the latest weather updates, especially if you carry out activities exposed to weather or close to a stream or shoreline. 


Meteo18 Weather Cam more information Meteo18 Weather Cam


Thunder radar more information blitzortung!


warning for Snow/Ice more information rain snow radar


Visit our other weather sites:

Template documentation
and downloads

And another site



Weather Underground History page Text

Daily Summary for March 28, 2017 Units:  English    Metric   Both
« Previous Day
Next Day »
Daily Weekly Monthly Yearly Custom
  High: Low: Average:
Temperature: 63.9 °F 45.9 °F 54.7 °F
Dew Point: 49.5 °F 39.7 °F 44.8 °F
Humidity: 87 % 51 % 70 %
Wind Speed: 13 mph 0 mph 2.9 mph
Wind Gust: 16 mph - -
Wind:- - WSW
Pressure: 30.4 in 30.2 in -
Precipitation: 0 in    
Historical Graphs
 
 
Tabular Data for March 28, 2017
Time Temperature Dew Point Pressure Wind Wind Speed Wind Gust Humidity Rainfall Rate (Hourly)
00:12 50.5 °F 41.5 °F 30.2 in WNW 1 mph 2 mph 71 % 0 in
00:17 50.4 °F 41.7 °F 30.2 in WNW 1 mph 2 mph 72 % 0 in
00:22 50 °F 41.4 °F 30.2 in WNW 2 mph 2 mph 72 % 0 in
00:32 50.2 °F 41.2 °F 30.2 in WNW 2 mph 3 mph 71 % 0 in
00:37 49.8 °F 41.2 °F 30.2 in WNW 1 mph 3 mph 72 % 0 in
00:42 49.5 °F 41.2 °F 30.2 in WNW 1 mph 3 mph 73 % 0 in
00:52 49.3 °F 41 °F 30.2 in Calm   2 mph 73 % 0 in
01:02 48.7 °F 40.8 °F 30.2 in Calm   1 mph 74 % 0 in
01:12 49.3 °F 40.6 °F 30.2 in Calm   1 mph 72 % 0 in
01:17 49.3 °F 40.6 °F 30.2 in Calm   1 mph 72 % 0 in
01:22 48 °F 40.5 °F 30.2 in West 1 mph 1 mph 75 % 0 in
01:32 48 °F 40.5 °F 30.2 in Calm   2 mph 75 % 0 in
01:37 48.6 °F 40.6 °F 30.2 in Calm   3 mph 74 % 0 in
01:42 48.9 °F 40.6 °F 30.2 in NNE 3 mph 3 mph 73 % 0 in
01:47 48.6 °F 40.6 °F 30.2 in Calm   3 mph 74 % 0 in
01:52 47.8 °F 40.3 °F 30.2 in Calm   3 mph 75 % 0 in
01:57 47.8 °F 40.3 °F 30.2 in Calm   3 mph 75 % 0 in
02:02 47.1 °F 39.9 °F 30.2 in Calm   3 mph 76 % 0 in
02:07 47.8 °F 40.6 °F 30.2 in NE 3 mph 3 mph 76 % 0 in
02:12 48.4 °F 40.5 °F 30.2 in ENE 2 mph 2 mph 74 % 0 in
02:17 48 °F 40.1 °F 30.2 in Calm   4 mph 74 % 0 in
02:22 46.9 °F 39.7 °F 30.2 in West 2 mph 4 mph 76 % 0 in
02:32 45.9 °F 39.7 °F 30.2 in SW 4 mph 4 mph 79 % 0 in
02:37 46.8 °F 40.6 °F 30.2 in SW 3 mph 11 mph 79 % 0 in
02:42 47.7 °F 40.8 °F 30.2 in SE 1 mph 11 mph 77 % 0 in
02:47 47.7 °F 40.8 °F 30.2 in Calm   11 mph 77 % 0 in
02:52 47.7 °F 40.5 °F 30.2 in Calm   7 mph 76 % 0 in
02:57 47.5 °F 41 °F 30.2 in West 1 mph 3 mph 78 % 0 in
03:02 48.4 °F 41.2 °F 30.2 in WNW 1 mph 2 mph 76 % 0 in
03:12 47.5 °F 40.6 °F 30.2 in NE 2 mph 2 mph 77 % 0 in
03:17 47.1 °F 40.6 °F 30.2 in Calm   2 mph 78 % 0 in
03:22 47.1 °F 41 °F 30.2 in ESE 1 mph 2 mph 79 % 0 in
03:32 47.1 °F 40.6 °F 30.2 in Calm   2 mph 78 % 0 in
03:37 47.1 °F 41 °F 30.2 in Calm   1 mph 79 % 0 in
03:42 46.9 °F 40.8 °F 30.2 in Calm   1 mph 79 % 0 in
03:47 46.8 °F 41 °F 30.2 in Calm     80 % 0 in
03:52 46.6 °F 40.8 °F 30.2 in Calm     80 % 0 in
03:57 46.6 °F 40.8 °F 30.2 in Calm     80 % 0 in
04:02 46.4 °F 40.6 °F 30.2 in Calm   1 mph 80 % 0 in
04:12 46.2 °F 40.6 °F 30.2 in Calm   1 mph 81 % 0 in
04:17 46.2 °F 40.6 °F 30.2 in South 1 mph 1 mph 81 % 0 in
04:22 46 °F 40.5 °F 30.2 in Calm   2 mph 81 % 0 in
04:27 45.9 °F 40.6 °F 30.2 in Calm   2 mph 82 % 0 in
04:32 46 °F 41.2 °F 30.2 in SSW 1 mph 2 mph 83 % 0 in
04:37 46.4 °F 41.5 °F 30.2 in SSW 3 mph 3 mph 83 % 0 in
04:42 47.1 °F 41.9 °F 30.2 in SW 3 mph 3 mph 82 % 0 in
04:47 47.8 °F 42.3 °F 30.2 in SW 3 mph 7 mph 81 % 0 in
04:52 48 °F 42.4 °F 30.2 in SW 2 mph 7 mph 81 % 0 in
04:57 48.4 °F 42.4 °F 30.2 in Calm   7 mph 80 % 0 in
05:02 47.8 °F 41.9 °F 30.2 in Calm   6 mph 80 % 0 in
05:12 46.9 °F 41.7 °F 30.2 in Calm   2 mph 82 % 0 in
05:17 46.8 °F 41.5 °F 30.2 in Calm   2 mph 82 % 0 in
05:27 46.6 °F 42.1 °F 30.2 in SSW 1 mph 1 mph 84 % 0 in
05:32 46.8 °F 42.3 °F 30.2 in South 1 mph 4 mph 84 % 0 in
05:42 47.8 °F 43 °F 30.2 in South 2 mph 4 mph 83 % 0 in
05:52 48.6 °F 43.3 °F 30.2 in SW 3 mph 7 mph 82 % 0 in
06:02 49.5 °F 43.9 °F 30.2 in West 1 mph 7 mph 81 % 0 in
06:12 49.8 °F 44.2 °F 30.2 in WSW 1 mph 7 mph 81 % 0 in
06:17 49.6 °F 44.1 °F 30.2 in SW 1 mph 7 mph 81 % 0 in
06:22 49.5 °F 43.9 °F 30.2 in SE 1 mph 3 mph 81 % 0 in
06:32 48.7 °F 43.9 °F 30.2 in Calm   3 mph 83 % 0 in
06:37 48.6 °F 43.7 °F 30.2 in Calm   2 mph 83 % 0 in
06:42 48.4 °F 43.7 °F 30.2 in Calm   2 mph 84 % 0 in
06:47 48.2 °F 43.9 °F 30.2 in SSW 3 mph 3 mph 85 % 0 in
06:52 48.6 °F 43.9 °F 30.2 in SW 3 mph 5 mph 84 % 0 in
07:02 49.6 °F 44.1 °F 30.2 in SW 2 mph 5 mph 81 % 0 in
07:07 50 °F 44.1 °F 30.2 in WSW 1 mph 5 mph 80 % 0 in
07:12 50.2 °F 43.9 °F 30.2 in Calm   4 mph 79 % 0 in
07:17 50.2 °F 43.9 °F 30.2 in Calm   4 mph 79 % 0 in
07:22 49.6 °F 43.7 °F 30.2 in Calm   2 mph 80 % 0 in
07:32 48.2 °F 43.3 °F 30.2 in SSE 1 mph 3 mph 83 % 0 in
07:42 46.9 °F 43 °F 30.2 in SW 1 mph 3 mph 86 % 0 in
07:52 47.5 °F 42.8 °F 30.2 in Calm   3 mph 84 % 0 in
07:57 47.1 °F 42.6 °F 30.2 in SSW 1 mph 3 mph 84 % 0 in
08:02 46.8 °F 42.3 °F 30.2 in SW 1 mph 3 mph 84 % 0 in
08:07 46.2 °F 41.9 °F 30.2 in Calm   3 mph 85 % 0 in
08:12 46 °F 42.1 °F 30.2 in Calm   2 mph 86 % 0 in
08:17 46 °F 42.4 °F 30.3 in Calm   2 mph 87 % 0 in
08:22 46.4 °F 42.8 °F 30.3 in Calm     87 % 0 in
08:32 46.8 °F 43.2 °F 30.3 in ESE 1 mph 2 mph 87 % 0 in
08:37 46.9 °F 43.3 °F 30.3 in Calm   2 mph 87 % 0 in
08:42 47.7 °F 44.1 °F 30.3 in Calm   2 mph 87 % 0 in
08:52 48.7 °F 44.4 °F 30.3 in Calm   1 mph 85 % 0 in
08:57 48.7 °F 44.1 °F 30.3 in Calm   1 mph 84 % 0 in
09:02 49.5 °F 45.1 °F 30.3 in Calm     85 % 0 in
09:12 50.7 °F 45.1 °F 30.3 in Calm     81 % 0 in
09:22 51.1 °F 46 °F 30.3 in ESE 2 mph   83 % 0 in
09:32 53.4 °F 48 °F 30.3 in Calm   3 mph 82 % 0 in
09:42 54.3 °F 47.3 °F 30.3 in West 6 mph 8 mph 77 % 0 in
09:47 54.3 °F 46.9 °F 30.3 in West 5 mph 8 mph 76 % 0 in
09:57 54.7 °F 47.7 °F 30.3 in West 2 mph 10 mph 77 % 0 in
10:02 54.9 °F 47.5 °F 30.3 in SW 3 mph 10 mph 76 % 0 in
10:12 55.2 °F 47.5 °F 30.3 in SW 2 mph 7 mph 75 % 0 in
10:17 55.6 °F 47.8 °F 30.3 in SSW 2 mph 7 mph 75 % 0 in
10:22 55.6 °F 47.5 °F 30.3 in SW 2 mph 7 mph 74 % 0 in
10:32 55.8 °F 48 °F 30.3 in West 1 mph 6 mph 75 % 0 in
10:42 56.7 °F 48 °F 30.3 in West 4 mph 5 mph 73 % 0 in
10:47 56.8 °F 47.5 °F 30.3 in West 9 mph 9 mph 71 % 0 in
10:52 56.5 °F 47.1 °F 30.3 in WSW 7 mph 10 mph 71 % 0 in
11:02 56.7 °F 47.3 °F 30.3 in West 5 mph 11 mph 71 % 0 in
11:17 57 °F 48.7 °F 30.3 in South 2 mph 9 mph 74 % 0 in
11:22 57.2 °F 47.5 °F 30.3 in WSW 4 mph 7 mph 70 % 0 in
11:27 57.2 °F 47.8 °F 30.3 in WSW 3 mph 7 mph 71 % 0 in
11:32 57.4 °F 47.7 °F 30.3 in West 6 mph 7 mph 70 % 0 in
11:37 57.6 °F 47.5 °F 30.3 in WSW 7 mph 7 mph 69 % 0 in
11:42 57.7 °F 46.9 °F 30.3 in SW 2 mph 10 mph 67 % 0 in
11:52 57.9 °F 46.6 °F 30.3 in SW 5 mph 10 mph 66 % 0 in
11:57 58.3 °F 47.3 °F 30.3 in WSW 8 mph 10 mph 67 % 0 in
12:02 58.6 °F 47.3 °F 30.3 in West 3 mph 9 mph 66 % 0 in
12:12 59.2 °F 47.8 °F 30.3 in SE 2 mph 9 mph 66 % 0 in
12:17 59.7 °F 49.5 °F 30.3 in West 3 mph 9 mph 69 % 0 in
12:22 61 °F 48.4 °F 30.3 in West 6 mph 7 mph 63 % 0 in
12:32 60.4 °F 46.9 °F 30.3 in WNW 6 mph 7 mph 61 % 0 in
12:37 60.4 °F 48.2 °F 30.3 in West 6 mph 9 mph 64 % 0 in
12:42 60.3 °F 47.7 °F 30.3 in WSW 6 mph 9 mph 63 % 0 in
12:47 59.5 °F 47.8 °F 30.3 in West 8 mph 9 mph 65 % 0 in
12:52 59.5 °F 48.6 °F 30.3 in WNW 6 mph 13 mph 67 % 0 in
13:02 59.7 °F 48 °F 30.3 in West 7 mph 13 mph 65 % 0 in
13:12 59.5 °F 46.9 °F 30.3 in WNW 9 mph 15 mph 63 % 0 in
13:17 59.2 °F 46.9 °F 30.3 in WNW 7 mph 15 mph 64 % 0 in
13:22 59.2 °F 46.9 °F 30.3 in WNW 4 mph 11 mph 64 % 0 in
13:27 59.7 °F 48 °F 30.3 in NNW 6 mph 11 mph 65 % 0 in
13:32 60.3 °F 47.1 °F 30.3 in West 5 mph 10 mph 62 % 0 in
13:42 60.3 °F 48 °F 30.3 in WNW 6 mph 10 mph 64 % 0 in
13:52 60.4 °F 48.2 °F 30.3 in WSW 8 mph 13 mph 64 % 0 in
14:02 60.4 °F 46.9 °F 30.3 in WSW 6 mph 12 mph 61 % 0 in
14:12 60.3 °F 47.1 °F 30.3 in WSW 2 mph 13 mph 62 % 0 in
14:17 60.3 °F 46.8 °F 30.3 in West 6 mph 13 mph 61 % 0 in
14:22 60.4 °F 46 °F 30.3 in West 8 mph 12 mph 59 % 0 in
14:32 61.3 °F 48.2 °F 30.3 in WSW 8 mph 12 mph 62 % 0 in
14:37 61.5 °F 47.1 °F 30.3 in SW 6 mph 11 mph 59 % 0 in
14:47 62.4 °F 48.4 °F 30.3 in WSW 5 mph 11 mph 60 % 0 in
14:52 62.8 °F 46.4 °F 30.3 in WSW 6 mph 11 mph 55 % 0 in
14:57 61.9 °F 47.5 °F 30.3 in WSW 11 mph 15 mph 59 % 0 in
15:02 61.2 °F 47.1 °F 30.3 in West 5 mph 15 mph 60 % 0 in
15:12 61.7 °F 46.8 °F 30.3 in South 5 mph 15 mph 58 % 0 in
15:17 61.7 °F 47.3 °F 30.3 in WSW 5 mph 13 mph 59 % 0 in
15:22 61.7 °F 47.7 °F 30.3 in WSW 3 mph 13 mph 60 % 0 in
15:32 62.2 °F 46.8 °F 30.3 in SW 9 mph 12 mph 57 % 0 in
15:42 63.1 °F 46.8 °F 30.3 in South 1 mph 13 mph 55 % 0 in
15:52 63.1 °F 47.7 °F 30.3 in SW 11 mph 14 mph 57 % 0 in
15:57 63.3 °F 47.8 °F 30.3 in SW 7 mph 16 mph 57 % 0 in
16:02 63.1 °F 47.1 °F 30.3 in West 6 mph 16 mph 56 % 0 in
16:12 63.1 °F 47.1 °F 30.3 in SW 9 mph 13 mph 56 % 0 in
16:17 63 °F 46.9 °F 30.3 in West 7 mph 14 mph 56 % 0 in
16:22 63.3 °F 47.3 °F 30.3 in West 6 mph 14 mph 56 % 0 in
16:27 63.3 °F 46.9 °F 30.3 in WSW 11 mph 14 mph 55 % 0 in
16:32 63.1 °F 47.7 °F 30.3 in WSW 5 mph 14 mph 57 % 0 in
16:37 63.3 °F 47.8 °F 30.3 in WSW 11 mph 14 mph 57 % 0 in
16:42 63 °F 48 °F 30.3 in West 6 mph 14 mph 58 % 0 in
16:47 62.8 °F 46.9 °F 30.3 in WSW 5 mph 14 mph 56 % 0 in
16:52 62.8 °F 46.9 °F 30.3 in West 8 mph 13 mph 56 % 0 in
16:57 63.1 °F 47.1 °F 30.3 in SW 13 mph 14 mph 56 % 0 in
17:02 63 °F 46.9 °F 30.3 in West 7 mph 14 mph 56 % 0 in
17:12 62.8 °F 47.8 °F 30.3 in West 7 mph 16 mph 58 % 0 in
17:17 63 °F 48.4 °F 30.3 in WNW 5 mph 16 mph 59 % 0 in
17:22 63 °F 46.9 °F 30.3 in West 8 mph 12 mph 56 % 0 in
17:27 63 °F 46.6 °F 30.3 in WSW 8 mph 12 mph 55 % 0 in
17:32 63.1 °F 46.8 °F 30.3 in West 4 mph 12 mph 55 % 0 in
17:42 63.1 °F 47.1 °F 30.3 in WSW 4 mph 12 mph 56 % 0 in
17:52 63.9 °F 45.3 °F 30.3 in SW 10 mph 12 mph 51 % 0 in
17:57 63.7 °F 46.2 °F 30.3 in WSW 6 mph 11 mph 53 % 0 in
18:02 63.7 °F 46.2 °F 30.3 in West 7 mph 11 mph 53 % 0 in
18:12 63.7 °F 46.8 °F 30.3 in West 4 mph 11 mph 54 % 0 in
18:17 63.9 °F 46.9 °F 30.3 in West 6 mph 10 mph 54 % 0 in
18:22 63.7 °F 46.2 °F 30.3 in West 7 mph 10 mph 53 % 0 in
18:32 63.5 °F 46 °F 30.3 in WNW 4 mph 10 mph 53 % 0 in
18:37 63.5 °F 46 °F 30.3 in WSW 7 mph 10 mph 53 % 0 in
18:42 63.5 °F 46.6 °F 30.3 in SW 5 mph 10 mph 54 % 0 in
18:47 63.7 °F 46.2 °F 30.3 in WSW 6 mph 11 mph 53 % 0 in
18:52 63.7 °F 46.8 °F 30.3 in WNW 4 mph 11 mph 54 % 0 in
18:57 63.7 °F 46.2 °F 30.3 in WSW 7 mph 10 mph 53 % 0 in
19:02 63.3 °F 46.4 °F 30.3 in WSW 4 mph 10 mph 54 % 0 in
19:12 63.3 °F 46.4 °F 30.3 in SSW 4 mph 11 mph 54 % 0 in
19:17 63.3 °F 46.4 °F 30.3 in WSW 2 mph 11 mph 54 % 0 in
19:22 63.3 °F 46.4 °F 30.3 in West 4 mph 9 mph 54 % 0 in
19:27 63 °F 46.6 °F 30.3 in SSE 2 mph 6 mph 55 % 0 in
19:32 62.8 °F 46.4 °F 30.3 in West 3 mph 7 mph 55 % 0 in
19:42 62.4 °F 46.6 °F 30.3 in SW 5 mph 7 mph 56 % 0 in
19:47 62.2 °F 46.8 °F 30.3 in SW 4 mph 9 mph 57 % 0 in
19:52 61.9 °F 46.4 °F 30.3 in WSW 3 mph 6 mph 57 % 0 in
19:57 61.3 °F 46.4 °F 30.3 in SW 3 mph 6 mph 58 % 0 in
20:02 61.2 °F 46.2 °F 30.3 in SW 2 mph 6 mph 58 % 0 in
20:12 60.6 °F 46.2 °F 30.3 in WSW 4 mph 6 mph 59 % 0 in
20:17 60.3 °F 45.9 °F 30.3 in West 2 mph 5 mph 59 % 0 in
20:22 59.9 °F 46 °F 30.3 in WSW 3 mph 5 mph 60 % 0 in
20:32 59.4 °F 45.9 °F 30.3 in SW 3 mph 6 mph 61 % 0 in
20:42 58.8 °F 45.9 °F 30.3 in WSW 1 mph 6 mph 62 % 0 in
20:47 58.5 °F 45.9 °F 30.3 in West 2 mph 5 mph 63 % 0 in
20:52 58.3 °F 45.7 °F 30.3 in West 2 mph 5 mph 63 % 0 in
21:02 57.9 °F 45.9 °F 30.3 in West 2 mph 3 mph 64 % 0 in
21:12 57 °F 45.9 °F 30.3 in West 1 mph 3 mph 66 % 0 in
21:17 56.7 °F 45.9 °F 30.3 in West 1 mph 3 mph 67 % 0 in
21:22 56.5 °F 46 °F 30.3 in West 1 mph 2 mph 68 % 0 in
21:32 56.1 °F 45.7 °F 30.3 in Calm   1 mph 68 % 0 in
21:42 55.4 °F 45.3 °F 30.4 in Calm   1 mph 69 % 0 in
21:52 55.2 °F 45.7 °F 30.4 in Calm     70 % 0 in
21:57 55.4 °F 45.9 °F 30.4 in Calm     70 % 0 in
22:02 55.4 °F 45.9 °F 30.4 in Calm     70 % 0 in
22:12 54.9 °F 45.7 °F 30.4 in Calm     71 % 0 in
22:17 54.7 °F 45.5 °F 30.4 in West 1 mph 1 mph 71 % 0 in
22:22 54.7 °F 45.5 °F 30.4 in West 1 mph 1 mph 71 % 0 in
22:27 54.3 °F 45.5 °F 30.4 in Calm   2 mph 72 % 0 in
22:32 54 °F 45.1 °F 30.4 in Calm   2 mph 72 % 0 in
22:42 52.5 °F 44.8 °F 30.4 in West 1 mph 1 mph 75 % 0 in
22:47 52.3 °F 45 °F 30.4 in West 1 mph 1 mph 76 % 0 in
22:52 52 °F 44.6 °F 30.4 in Calm   1 mph 76 % 0 in
22:57 51.8 °F 44.8 °F 30.4 in Calm   1 mph 77 % 0 in
23:02 51.6 °F 44.6 °F 30.4 in Calm   1 mph 77 % 0 in
23:12 51.4 °F 44.4 °F 30.4 in Calm   1 mph 77 % 0 in
23:17 51.1 °F 44.4 °F 30.4 in Calm   1 mph 78 % 0 in
23:22 50.9 °F 44.2 °F 30.4 in Calm     78 % 0 in
23:32 50.2 °F 43.9 °F 30.4 in Calm   1 mph 79 % 0 in
23:42 49.5 °F 43.9 °F 30.4 in Calm     81 % 0 in
23:47 49.5 °F 44.2 °F 30.4 in Calm     82 % 0 in
23:52 49.8 °F 44.6 °F 30.4 in Calm     82 % 0 in
23:57 50.2 °F 44.6 °F 30.4 in Calm   1 mph 81 % 0 in
Meteo18
Compliments of Weather Underground - 4 mb

Script developed by  Jim McMurry - jmcmurry@mwt.net Adapted for the template by  Wim van der Kuil - Leuven-Template.eu

You find our weather info also at:

European Weather Network

Weather Underground

Equipment we use:

Weather-station
Davis Vue

Weather-program
Meteohub

Weather-server
Raspberry PI 2 B+

Provider
1 and 1

Davis Vue

Meteohub

Raspberry PI 2 B+

1 and 1